createdAt,value
2022-11-29T00:00:32.472Z,16.87
2022-11-29T00:03:34.527Z,14.00
2022-11-29T00:06:36.245Z,14.40
2022-11-29T00:09:38.028Z,16.97
2022-11-29T00:12:39.657Z,19.87
2022-11-29T00:15:41.323Z,21.60
2022-11-29T00:18:42.886Z,21.90
2022-11-29T00:21:44.411Z,24.50
2022-11-29T00:24:46.181Z,23.33
2022-11-29T00:27:48.021Z,26.27
2022-11-29T00:30:49.765Z,23.57
2022-11-29T00:33:51.445Z,22.93
2022-11-29T00:36:53.139Z,128.60
2022-11-29T00:39:54.718Z,19.80
2022-11-29T00:42:56.350Z,19.83
2022-11-29T00:45:58.042Z,19.80
2022-11-29T00:48:59.643Z,20.77
2022-11-29T00:52:01.248Z,22.60
2022-11-29T00:55:02.961Z,21.43
2022-11-29T00:58:04.834Z,18.40
2022-11-29T01:01:06.540Z,19.83
2022-11-29T01:04:08.284Z,17.43
2022-11-29T01:07:09.894Z,19.87
2022-11-29T01:10:11.549Z,18.47
2022-11-29T01:13:13.930Z,16.70
2022-11-29T01:16:15.786Z,17.00
2022-11-29T01:19:17.451Z,16.63
2022-11-29T01:22:19.048Z,17.73
2022-11-29T01:25:20.689Z,16.87
2022-11-29T01:28:22.319Z,16.80
2022-11-29T01:31:25.270Z,17.37
2022-11-29T01:34:26.819Z,15.27
2022-11-29T01:37:28.915Z,14.53
2022-11-29T01:40:30.543Z,12.83
2022-11-29T01:43:32.676Z,12.77
2022-11-29T01:46:35.648Z,11.83
2022-11-29T01:49:42.590Z,12.97
2022-11-29T01:52:44.455Z,11.67
2022-11-29T01:55:48.037Z,12.77
2022-11-29T01:58:49.953Z,12.80
2022-11-29T02:01:52.245Z,12.57
2022-11-29T02:04:54.308Z,12.17
2022-11-29T02:07:57.568Z,11.77
2022-11-29T02:11:17.616Z,11.97
2022-11-29T02:14:44.533Z,10.13
2022-11-29T02:17:58.565Z,11.60
2022-11-29T02:21:11.184Z,11.07
2022-11-29T02:24:36.087Z,11.60
2022-11-29T02:27:57.084Z,12.53
2022-11-29T02:31:07.820Z,13.67
2022-11-29T02:34:35.713Z,16.13
2022-11-29T02:37:37.285Z,17.67
2022-11-29T02:40:59.125Z,17.03
2022-11-29T02:44:00.762Z,18.53
2022-11-29T02:47:02.295Z,17.80
2022-11-29T02:50:03.864Z,15.70
2022-11-29T02:53:23.847Z,14.57
2022-11-29T02:56:31.978Z,15.47
2022-11-29T02:59:50.812Z,13.80
2022-11-29T03:02:52.485Z,12.37
2022-11-29T03:06:02.864Z,12.63
2022-11-29T03:09:10.570Z,11.33
2022-11-29T03:12:12.159Z,10.63
2022-11-29T03:15:26.060Z,9.00
2022-11-29T03:18:27.755Z,11.57
2022-11-29T03:21:48.727Z,11.03
2022-11-29T03:25:02.677Z,12.80
2022-11-29T03:28:13.700Z,13.40
2022-11-29T03:31:29.481Z,11.10
2022-11-29T03:34:43.769Z,14.50
2022-11-29T03:38:04.367Z,15.47
2022-11-29T03:41:06.038Z,13.37
2022-11-29T03:44:11.424Z,12.10
2022-11-29T03:47:14.883Z,13.23
2022-11-29T03:50:19.481Z,16.33
2022-11-29T03:53:29.100Z,17.10
2022-11-29T03:56:33.154Z,14.60
2022-11-29T03:59:34.734Z,14.37
2022-11-29T04:02:55.279Z,14.17
2022-11-29T04:06:11.027Z,12.93
2022-11-29T04:09:21.703Z,18.30
2022-11-29T04:12:26.384Z,16.27
2022-11-29T04:15:30.904Z,17.57
2022-11-29T04:18:41.618Z,18.33
2022-11-29T04:21:55.279Z,15.50
2022-11-29T04:25:12.276Z,10.53
2022-11-29T04:28:33.473Z,13.40
2022-11-29T04:31:46.882Z,14.40
2022-11-29T04:34:48.533Z,13.57
2022-11-29T04:38:08.887Z,15.17
2022-11-29T04:41:28.901Z,12.73
2022-11-29T04:44:36.690Z,14.80
2022-11-29T04:47:42.903Z,15.17
2022-11-29T04:50:58.226Z,16.30
2022-11-29T04:54:18.464Z,16.77
2022-11-29T04:57:37.248Z,15.93
2022-11-29T05:00:52.016Z,18.40
2022-11-29T05:03:57.505Z,18.23
2022-11-29T05:07:05.697Z,17.93
2022-11-29T05:10:16.419Z,20.37
2022-11-29T05:13:36.808Z,18.87
2022-11-29T05:16:41.425Z,14.53
2022-11-29T05:19:55.023Z,16.97
2022-11-29T05:23:18.021Z,20.43
2022-11-29T05:26:22.800Z,16.60
2022-11-29T05:29:34.405Z,13.57
2022-11-29T05:33:02.490Z,14.57
2022-11-29T05:36:16.055Z,14.30
2022-11-29T05:39:17.732Z,15.77
2022-11-29T05:42:40.452Z,13.87
2022-11-29T05:45:52.523Z,12.07
2022-11-29T05:48:54.143Z,15.10
2022-11-29T05:52:14.508Z,15.93
2022-11-29T05:55:34.877Z,15.43
2022-11-29T05:58:36.536Z,25.97
2022-11-29T06:01:45.365Z,17.17
2022-11-29T06:04:59.282Z,18.63
2022-11-29T06:08:03.631Z,20.93
2022-11-29T06:11:16.643Z,15.30
2022-11-29T06:14:19.161Z,14.77
2022-11-29T06:17:34.362Z,16.87
2022-11-29T06:20:58.579Z,17.07
2022-11-29T06:24:15.669Z,15.30
2022-11-29T06:27:22.267Z,14.07
2022-11-29T06:30:27.075Z,18.77
2022-11-29T06:33:39.862Z,18.73
2022-11-29T06:36:44.591Z,15.57
2022-11-29T06:39:46.247Z,15.17
2022-11-29T06:42:48.954Z,19.67
2022-11-29T06:45:53.906Z,23.23
2022-11-29T06:49:02.487Z,23.47
2022-11-29T06:52:04.365Z,23.07
2022-11-29T06:55:08.904Z,20.37
2022-11-29T06:58:22.742Z,16.93
2022-11-29T07:01:24.391Z,18.40
2022-11-29T07:04:45.423Z,24.17
2022-11-29T07:07:48.714Z,19.30
2022-11-29T07:10:53.200Z,15.80
2022-11-29T07:13:55.060Z,19.73
2022-11-29T07:17:15.339Z,18.90
2022-11-29T07:20:32.292Z,18.67
2022-11-29T07:23:34.603Z,18.20
2022-11-29T07:26:39.230Z,17.27
2022-11-29T07:29:49.610Z,20.83
2022-11-29T07:33:09.995Z,20.57
2022-11-29T07:36:18.907Z,23.33
2022-11-29T07:39:20.525Z,15.83
2022-11-29T07:42:41.007Z,18.30
2022-11-29T07:45:43.012Z,18.83
2022-11-29T07:48:44.667Z,18.70
2022-11-29T07:51:46.344Z,10.77
2022-11-29T07:54:48.262Z,25.30
2022-11-29T07:57:49.908Z,41.63
2022-11-29T08:00:51.588Z,19.27
2022-11-29T08:03:53.243Z,18.20
2022-11-29T08:06:57.552Z,33.87
2022-11-29T08:09:59.141Z,21.40
2022-11-29T08:13:00.744Z,22.00
2022-11-29T08:16:02.355Z,19.20
2022-11-29T08:19:04.885Z,21.63
2022-11-29T08:22:06.527Z,18.73
2022-11-29T08:25:08.448Z,26.87
2022-11-29T08:28:10.077Z,32.03
2022-11-29T08:31:13.337Z,23.80
2022-11-29T08:34:15.086Z,27.30
2022-11-29T08:37:16.682Z,26.13
2022-11-29T08:40:18.407Z,27.10
2022-11-29T08:43:20.082Z,33.47
2022-11-29T08:46:22.124Z,51.93
2022-11-29T08:49:23.762Z,28.27
2022-11-29T08:52:43.867Z,141.97
2022-11-29T08:55:46.696Z,106.07
2022-11-29T08:58:48.378Z,15.90
2022-11-29T09:01:49.993Z,25.00
2022-11-29T09:04:51.693Z,17.67
2022-11-29T09:07:53.348Z,23.53
2022-11-29T09:10:54.987Z,21.57
2022-11-29T09:13:58.856Z,48.67
2022-11-29T09:17:01.569Z,21.20
2022-11-29T09:20:04.038Z,19.80
2022-11-29T09:23:05.648Z,61.87
2022-11-29T09:26:08.053Z,18.30
2022-11-29T09:29:10.859Z,21.57
2022-11-29T09:32:12.561Z,14.77
2022-11-29T09:35:14.130Z,18.87
2022-11-29T09:38:15.749Z,23.63
2022-11-29T09:41:20.384Z,21.07
2022-11-29T09:44:28.199Z,19.50
2022-11-29T09:47:41.947Z,13.07
2022-11-29T09:50:57.537Z,18.17
2022-11-29T09:54:17.520Z,15.87
2022-11-29T09:57:19.802Z,22.10
2022-11-29T10:00:21.511Z,18.93
2022-11-29T10:03:25.594Z,24.90
2022-11-29T10:06:30.877Z,15.37
2022-11-29T10:09:50.479Z,29.27
2022-11-29T10:12:54.116Z,18.70
2022-11-29T10:16:09.509Z,20.93
2022-11-29T10:19:15.617Z,16.83
2022-11-29T10:22:20.482Z,19.43
2022-11-29T10:25:28.767Z,20.57
2022-11-29T10:28:32.393Z,19.97
2022-11-29T10:31:39.221Z,20.93
2022-11-29T10:34:41.189Z,16.83
2022-11-29T10:37:56.339Z,19.90
2022-11-29T10:41:07.692Z,18.50
2022-11-29T10:44:12.882Z,22.90
2022-11-29T10:47:14.488Z,24.93
2022-11-29T10:50:21.368Z,47.40
2022-11-29T10:53:24.451Z,39.20
2022-11-29T10:56:34.457Z,58.90
2022-11-29T10:59:36.017Z,41.97
2022-11-29T11:02:37.794Z,25.80
2022-11-29T11:05:39.592Z,58.30
2022-11-29T11:08:46.019Z,25.10
2022-11-29T11:11:52.248Z,21.17
2022-11-29T11:15:13.107Z,20.70
2022-11-29T11:18:21.872Z,36.30
2022-11-29T11:21:25.430Z,44.73
2022-11-29T11:24:28.222Z,79.37
2022-11-29T11:27:30.679Z,75.80
2022-11-29T11:30:32.447Z,10.93
2022-11-29T11:33:41.394Z,14.50
2022-11-29T11:36:43.104Z,30.10
2022-11-29T11:39:48.575Z,18.60
2022-11-29T11:42:50.207Z,12.27
2022-11-29T11:45:53.340Z,13.97
2022-11-29T11:48:54.993Z,13.03
2022-11-29T11:51:59.701Z,18.80
2022-11-29T11:55:02.950Z,17.97
2022-11-29T11:58:09.904Z,17.70
2022-11-29T12:01:12.293Z,21.83
2022-11-29T12:04:16.958Z,25.93
2022-11-29T12:07:33.948Z,24.63
2022-11-29T12:10:41.338Z,30.50
2022-11-29T12:13:46.662Z,18.83
2022-11-29T12:16:50.030Z,17.77
2022-11-29T12:20:11.960Z,20.27
2022-11-29T12:23:13.737Z,19.23
2022-11-29T12:26:48.828Z,20.73
2022-11-29T12:29:41.221Z,17.50
2022-11-29T12:32:50.802Z,38.47
2022-11-29T12:36:03.340Z,23.23
2022-11-29T12:39:07.972Z,25.13
2022-11-29T12:42:14.162Z,39.57
2022-11-29T12:45:15.701Z,23.10
2022-11-29T12:48:35.851Z,30.77
2022-11-29T12:51:49.436Z,32.37
2022-11-29T12:54:57.308Z,29.27
2022-11-29T12:57:58.902Z,41.53
2022-11-29T13:01:06.415Z,42.47
2022-11-29T13:04:29.716Z,55.23
2022-11-29T13:07:41.038Z,30.50
2022-11-29T13:11:01.459Z,24.57
2022-11-29T13:14:41.559Z,31.43
2022-11-29T13:17:35.185Z,81.50
2022-11-29T13:20:41.102Z,66.97
2022-11-29T13:24:09.950Z,37.43
2022-11-29T13:27:05.347Z,27.20
2022-11-29T13:30:07.419Z,31.57
2022-11-29T13:33:19.790Z,50.07
2022-11-29T13:36:40.078Z,32.07
2022-11-29T13:39:50.782Z,41.40
2022-11-29T13:43:03.468Z,29.43
2022-11-29T13:46:20.483Z,30.07
2022-11-29T13:49:45.383Z,38.83
2022-11-29T13:52:47.803Z,30.67
2022-11-29T13:56:02.271Z,30.07
2022-11-29T13:59:06.093Z,24.00
2022-11-29T14:02:26.300Z,37.73
2022-11-29T14:05:29.092Z,31.13
2022-11-29T14:08:48.149Z,27.47
2022-11-29T14:12:03.211Z,19.77
2022-11-29T14:15:11.036Z,133.57
2022-11-29T14:18:31.406Z,69.03
2022-11-29T14:21:51.997Z,31.27
2022-11-29T14:24:58.824Z,62.97
2022-11-29T14:28:23.669Z,31.93
2022-11-29T14:31:43.911Z,52.27
2022-11-29T14:34:48.106Z,41.37
2022-11-29T14:38:14.621Z,23.47
2022-11-29T14:41:19.291Z,25.20
2022-11-29T14:44:26.107Z,27.83
2022-11-29T14:47:39.171Z,32.23
2022-11-29T14:50:41.943Z,33.27
2022-11-29T14:53:45.030Z,30.30
2022-11-29T14:56:47.475Z,34.67
2022-11-29T14:59:49.203Z,24.70
2022-11-29T15:02:53.011Z,25.63
2022-11-29T15:05:59.425Z,26.13
2022-11-29T15:09:03.063Z,25.80
2022-11-29T15:12:14.868Z,23.77
2022-11-29T15:15:22.543Z,23.80
2022-11-29T15:18:36.956Z,39.07
2022-11-29T15:21:38.569Z,30.60
2022-11-29T15:25:09.572Z,38.23
2022-11-29T15:28:19.886Z,56.70
2022-11-29T15:31:21.625Z,47.70
2022-11-29T15:34:26.421Z,45.93
2022-11-29T15:37:30.948Z,34.37
2022-11-29T15:40:36.347Z,42.47
2022-11-29T15:43:38.294Z,45.13
2022-11-29T15:46:39.898Z,39.53
2022-11-29T15:49:41.519Z,43.63
2022-11-29T15:52:43.301Z,49.77
2022-11-29T15:55:49.795Z,71.87
2022-11-29T15:58:59.369Z,58.10
2022-11-29T16:02:05.560Z,66.90
2022-11-29T16:05:10.049Z,50.50
2022-11-29T16:08:19.107Z,48.10
2022-11-29T16:11:29.650Z,41.03
2022-11-29T16:14:31.416Z,41.13
2022-11-29T16:17:34.698Z,40.37
2022-11-29T16:20:40.847Z,49.87
2022-11-29T16:23:45.807Z,62.43
2022-11-29T16:26:53.899Z,55.73
2022-11-29T16:29:59.565Z,52.77
2022-11-29T16:33:03.480Z,46.63
2022-11-29T16:36:16.681Z,52.27
2022-11-29T16:39:25.040Z,42.90
2022-11-29T16:42:28.185Z,69.00
2022-11-29T16:45:35.166Z,45.70
2022-11-29T16:48:40.556Z,46.23
2022-11-29T16:51:48.452Z,42.13
2022-11-29T16:54:53.646Z,35.73
2022-11-29T16:57:55.416Z,38.10
2022-11-29T17:04:24.993Z,43.23
2022-11-29T17:07:29.184Z,35.87
2022-11-29T17:10:32.324Z,46.17
2022-11-29T17:13:34.020Z,35.63
2022-11-29T17:16:36.952Z,30.47
2022-11-29T17:19:38.611Z,38.77
2022-11-29T17:22:41.022Z,27.53
2022-11-29T17:25:42.629Z,32.40
2022-11-29T17:28:44.884Z,32.73
2022-11-29T17:31:47.103Z,24.50
2022-11-29T17:34:48.814Z,26.93
2022-11-29T17:37:50.510Z,24.40
2022-11-29T17:40:52.288Z,23.10
2022-11-29T17:43:54.925Z,26.43
2022-11-29T17:46:56.575Z,26.60
2022-11-29T17:50:00.518Z,27.73
2022-11-29T17:53:02.359Z,26.90
2022-11-29T17:56:08.366Z,26.73
2022-11-29T17:59:09.953Z,26.10
2022-11-29T18:02:12.169Z,32.57
2022-11-29T18:05:15.838Z,39.50
2022-11-29T18:08:17.368Z,35.63
2022-11-29T18:11:41.639Z,33.47
2022-11-29T18:14:48.722Z,35.30
2022-11-29T18:17:50.495Z,36.93
2022-11-29T18:20:52.525Z,30.07
2022-11-29T18:23:54.244Z,30.63
2022-11-29T18:26:55.884Z,30.17
2022-11-29T18:29:57.900Z,32.83
2022-11-29T18:33:00.952Z,35.83
2022-11-29T18:36:13.111Z,33.17
2022-11-29T18:39:21.447Z,50.03
2022-11-29T18:42:24.243Z,34.40
2022-11-29T18:45:25.842Z,41.13
2022-11-29T18:48:29.944Z,59.87
2022-11-29T18:51:34.691Z,24.40
2022-11-29T18:54:36.458Z,35.77
2022-11-29T18:57:38.397Z,41.53
2022-11-29T19:00:40.835Z,37.77
2022-11-29T19:03:47.072Z,46.03
2022-11-29T19:06:48.894Z,45.37
2022-11-29T19:09:50.666Z,41.13
2022-11-29T19:12:52.275Z,43.67
2022-11-29T19:15:54.681Z,54.60
2022-11-29T19:18:56.941Z,59.37
2022-11-29T19:21:58.616Z,62.80
2022-11-29T19:25:00.738Z,60.53
2022-11-29T19:28:02.339Z,50.30
2022-11-29T19:31:05.452Z,56.27
2022-11-29T19:34:08.034Z,57.63
2022-11-29T19:37:09.714Z,51.10
2022-11-29T19:40:11.575Z,45.87
2022-11-29T19:43:13.265Z,58.00
2022-11-29T19:46:14.977Z,50.07
2022-11-29T19:49:17.090Z,52.03
2022-11-29T19:52:18.686Z,49.53
2022-11-29T19:55:20.343Z,51.83
2022-11-29T19:58:22.071Z,53.07
2022-11-29T20:01:25.406Z,49.80
2022-11-29T20:04:27.098Z,58.90
2022-11-29T20:07:28.753Z,48.53
2022-11-29T20:10:30.409Z,46.77
2022-11-29T20:13:31.999Z,45.20
2022-11-29T20:16:33.959Z,37.27
2022-11-29T20:19:35.537Z,44.23
2022-11-29T20:22:37.720Z,42.43
2022-11-29T20:25:39.278Z,38.93
2022-11-29T20:28:41.238Z,35.60
2022-11-29T20:31:50.088Z,36.00
2022-11-29T20:34:52.694Z,34.43
2022-11-29T20:38:05.759Z,35.83
2022-11-29T20:41:27.579Z,34.43
2022-11-29T20:44:39.488Z,37.67
2022-11-29T20:47:41.398Z,41.83
2022-11-29T20:50:44.573Z,47.83
2022-11-29T20:53:48.810Z,51.43
2022-11-29T20:56:50.398Z,53.77
2022-11-29T20:59:51.961Z,51.93
2022-11-29T21:02:53.653Z,47.73
2022-11-29T21:05:56.040Z,51.57
2022-11-29T21:08:57.584Z,57.30
2022-11-29T21:11:59.423Z,69.00
2022-11-29T21:15:01.045Z,64.20
2022-11-29T21:18:02.676Z,57.53
2022-11-29T21:21:30.426Z,55.77
2022-11-29T21:24:47.557Z,55.60
2022-11-29T21:27:49.455Z,62.20
2022-11-29T21:30:51.242Z,53.20
2022-11-29T21:33:53.055Z,58.17
2022-11-29T21:36:56.658Z,58.47
2022-11-29T21:39:58.332Z,64.47
2022-11-29T21:43:01.020Z,61.17
2022-11-29T21:46:02.744Z,62.47
2022-11-29T21:49:04.786Z,59.37
2022-11-29T21:52:06.974Z,64.50
2022-11-29T21:55:08.855Z,62.57
2022-11-29T21:58:10.423Z,61.40
2022-11-29T22:01:14.118Z,60.77
2022-11-29T22:04:15.868Z,60.63
2022-11-29T22:07:17.525Z,68.07
2022-11-29T22:10:19.120Z,85.63
2022-11-29T22:13:20.677Z,81.23
2022-11-29T22:16:22.327Z,77.90
2022-11-29T22:19:23.952Z,78.20
2022-11-29T22:22:28.080Z,76.77
2022-11-29T22:25:30.279Z,71.20
2022-11-29T22:28:32.056Z,68.87
2022-11-29T22:31:35.332Z,66.53
2022-11-29T22:34:37.011Z,62.83
2022-11-29T22:37:38.663Z,62.20
2022-11-29T22:40:40.590Z,66.60
2022-11-29T22:43:42.584Z,63.60
2022-11-29T22:46:44.320Z,65.67
2022-11-29T22:49:45.968Z,60.20
2022-11-29T22:52:47.541Z,78.60
2022-11-29T22:55:49.095Z,70.77
2022-11-29T22:58:50.682Z,64.13
2022-11-29T23:01:52.330Z,68.93
2022-11-29T23:04:53.955Z,66.80
2022-11-29T23:07:55.648Z,65.37
2022-11-29T23:10:57.742Z,72.63
2022-11-29T23:13:59.339Z,75.83
2022-11-29T23:17:00.894Z,70.20
2022-11-29T23:20:02.419Z,71.40
2022-11-29T23:23:04.037Z,69.67
2022-11-29T23:26:06.955Z,79.17
2022-11-29T23:29:09.928Z,79.50
2022-11-29T23:32:11.531Z,78.53
2022-11-29T23:35:13.285Z,77.27
2022-11-29T23:38:15.398Z,75.03
2022-11-29T23:41:17.280Z,84.30
2022-11-29T23:44:18.987Z,76.73
2022-11-29T23:47:20.644Z,79.80
2022-11-29T23:50:22.818Z,72.83
2022-11-29T23:53:24.382Z,75.83
2022-11-29T23:56:26.021Z,75.50
2022-11-29T23:59:27.593Z,78.93
